sensor_id;sensor_type;location;lat;lon;timestamp;P1;durP1;ratioP1;P2;durP2;ratioP2
11829;SDS011;5972;42.134;24.718;2023-04-06T00:00:13;7.07;;;6.10;;
11829;SDS011;5972;42.134;24.718;2023-04-06T00:02:41;6.00;;;5.40;;
11829;SDS011;5972;42.134;24.718;2023-04-06T00:05:07;6.10;;;5.60;;
11829;SDS011;5972;42.134;24.718;2023-04-06T00:07:35;6.10;;;5.60;;
11829;SDS011;5972;42.134;24.718;2023-04-06T00:10:04;6.67;;;6.03;;
11829;SDS011;5972;42.134;24.718;2023-04-06T00:12:31;6.10;;;5.60;;
11829;SDS011;5972;42.134;24.718;2023-04-06T00:14:58;6.30;;;5.70;;
11829;SDS011;5972;42.134;24.718;2023-04-06T00:17:26;7.17;;;6.47;;
11829;SDS011;5972;42.134;24.718;2023-04-06T00:19:53;6.93;;;5.93;;
11829;SDS011;5972;42.134;24.718;2023-04-06T00:22:20;6.60;;;6.00;;
11829;SDS011;5972;42.134;24.718;2023-04-06T00:24:46;6.70;;;6.00;;
11829;SDS011;5972;42.134;24.718;2023-04-06T00:27:15;6.63;;;6.03;;
11829;SDS011;5972;42.134;24.718;2023-04-06T00:29:41;6.57;;;5.97;;
11829;SDS011;5972;42.134;24.718;2023-04-06T00:32:09;6.67;;;5.93;;
11829;SDS011;5972;42.134;24.718;2023-04-06T00:34:36;6.87;;;6.13;;
11829;SDS011;5972;42.134;24.718;2023-04-06T00:37:02;7.07;;;6.40;;
11829;SDS011;5972;42.134;24.718;2023-04-06T00:39:29;7.13;;;6.00;;
11829;SDS011;5972;42.134;24.718;2023-04-06T00:41:56;7.17;;;6.00;;
11829;SDS011;5972;42.134;24.718;2023-04-06T00:44:24;9.20;;;6.17;;
11829;SDS011;5972;42.134;24.718;2023-04-06T00:46:51;7.63;;;6.30;;
11829;SDS011;5972;42.134;24.718;2023-04-06T00:49:18;6.77;;;6.07;;
11829;SDS011;5972;42.134;24.718;2023-04-06T00:51:46;6.30;;;5.70;;
11829;SDS011;5972;42.134;24.718;2023-04-06T00:54:13;6.70;;;6.00;;
11829;SDS011;5972;42.134;24.718;2023-04-06T00:56:41;6.80;;;6.10;;
11829;SDS011;5972;42.134;24.718;2023-04-06T00:59:08;6.80;;;6.10;;
11829;SDS011;5972;42.134;24.718;2023-04-06T01:01:37;6.80;;;6.10;;
11829;SDS011;5972;42.134;24.718;2023-04-06T01:04:04;7.93;;;6.90;;
11829;SDS011;5972;42.134;24.718;2023-04-06T01:06:31;7.37;;;6.67;;
11829;SDS011;5972;42.134;24.718;2023-04-06T01:08:57;6.97;;;6.27;;
11829;SDS011;5972;42.134;24.718;2023-04-06T01:11:24;6.50;;;5.90;;
11829;SDS011;5972;42.134;24.718;2023-04-06T01:13:51;7.10;;;6.40;;
11829;SDS011;5972;42.134;24.718;2023-04-06T01:16:18;7.00;;;6.27;;
11829;SDS011;5972;42.134;24.718;2023-04-06T01:18:47;6.90;;;6.27;;
11829;SDS011;5972;42.134;24.718;2023-04-06T01:21:13;7.13;;;6.37;;
11829;SDS011;5972;42.134;24.718;2023-04-06T01:23:43;6.50;;;5.73;;
11829;SDS011;5972;42.134;24.718;2023-04-06T01:26:11;6.50;;;5.67;;
11829;SDS011;5972;42.134;24.718;2023-04-06T01:28:38;6.43;;;5.80;;
11829;SDS011;5972;42.134;24.718;2023-04-06T01:31:05;6.67;;;6.07;;
11829;SDS011;5972;42.134;24.718;2023-04-06T01:33:32;6.97;;;5.83;;
11829;SDS011;5972;42.134;24.718;2023-04-06T01:35:59;6.50;;;5.90;;
11829;SDS011;5972;42.134;24.718;2023-04-06T01:38:26;6.50;;;5.90;;
11829;SDS011;5972;42.134;24.718;2023-04-06T01:40:54;6.30;;;5.70;;
11829;SDS011;5972;42.134;24.718;2023-04-06T01:43:21;6.47;;;5.87;;
11829;SDS011;5972;42.134;24.718;2023-04-06T01:45:48;6.13;;;5.53;;
11829;SDS011;5972;42.134;24.718;2023-04-06T01:48:16;6.30;;;5.70;;
11829;SDS011;5972;42.134;24.718;2023-04-06T01:50:42;6.80;;;6.20;;
11829;SDS011;5972;42.134;24.718;2023-04-06T01:53:09;6.70;;;6.03;;
11829;SDS011;5972;42.134;24.718;2023-04-06T01:55:36;6.63;;;5.93;;
11829;SDS011;5972;42.134;24.718;2023-04-06T01:58:04;7.77;;;6.87;;
11829;SDS011;5972;42.134;24.718;2023-04-06T02:00:31;7.10;;;6.40;;
11829;SDS011;5972;42.134;24.718;2023-04-06T02:02:58;7.20;;;6.40;;
11829;SDS011;5972;42.134;24.718;2023-04-06T02:05:25;8.10;;;6.87;;
11829;SDS011;5972;42.134;24.718;2023-04-06T02:07:51;8.90;;;7.40;;
11829;SDS011;5972;42.134;24.718;2023-04-06T02:10:18;7.07;;;6.37;;
11829;SDS011;5972;42.134;24.718;2023-04-06T02:12:45;8.40;;;6.90;;
11829;SDS011;5972;42.134;24.718;2023-04-06T02:15:13;7.83;;;6.70;;
11829;SDS011;5972;42.134;24.718;2023-04-06T02:17:40;7.70;;;6.90;;
11829;SDS011;5972;42.134;24.718;2023-04-06T02:20:08;7.40;;;6.70;;
11829;SDS011;5972;42.134;24.718;2023-04-06T02:22:35;7.53;;;6.70;;
11829;SDS011;5972;42.134;24.718;2023-04-06T02:25:02;7.80;;;6.90;;
11829;SDS011;5972;42.134;24.718;2023-04-06T02:27:30;8.20;;;7.40;;
11829;SDS011;5972;42.134;24.718;2023-04-06T02:29:56;7.90;;;7.10;;
11829;SDS011;5972;42.134;24.718;2023-04-06T02:32:24;9.63;;;7.70;;
11829;SDS011;5972;42.134;24.718;2023-04-06T02:34:51;9.73;;;7.37;;
11829;SDS011;5972;42.134;24.718;2023-04-06T02:37:18;8.93;;;7.70;;
11829;SDS011;5972;42.134;24.718;2023-04-06T02:39:45;8.73;;;7.70;;
11829;SDS011;5972;42.134;24.718;2023-04-06T02:42:13;8.77;;;7.87;;
11829;SDS011;5972;42.134;24.718;2023-04-06T02:44:40;11.23;;;8.23;;
11829;SDS011;5972;42.134;24.718;2023-04-06T02:47:07;11.50;;;7.97;;
11829;SDS011;5972;42.134;24.718;2023-04-06T02:49:35;11.70;;;8.37;;
11829;SDS011;5972;42.134;24.718;2023-04-06T02:52:02;9.63;;;7.63;;
11829;SDS011;5972;42.134;24.718;2023-04-06T02:54:29;9.77;;;7.63;;
11829;SDS011;5972;42.134;24.718;2023-04-06T02:56:56;11.33;;;8.20;;
11829;SDS011;5972;42.134;24.718;2023-04-06T02:59:23;12.07;;;8.70;;
11829;SDS011;5972;42.134;24.718;2023-04-06T03:01:50;12.83;;;8.53;;
11829;SDS011;5972;42.134;24.718;2023-04-06T03:04:17;10.40;;;8.40;;
11829;SDS011;5972;42.134;24.718;2023-04-06T03:06:45;10.20;;;8.23;;
11829;SDS011;5972;42.134;24.718;2023-04-06T03:09:12;10.77;;;8.60;;
11829;SDS011;5972;42.134;24.718;2023-04-06T03:11:39;9.37;;;8.17;;
11829;SDS011;5972;42.134;24.718;2023-04-06T03:14:06;10.63;;;7.90;;
11829;SDS011;5972;42.134;24.718;2023-04-06T03:16:32;11.23;;;8.13;;
11829;SDS011;5972;42.134;24.718;2023-04-06T03:18:59;9.50;;;7.80;;
11829;SDS011;5972;42.134;24.718;2023-04-06T03:21:26;11.33;;;8.57;;
11829;SDS011;5972;42.134;24.718;2023-04-06T03:23:54;10.60;;;8.17;;
11829;SDS011;5972;42.134;24.718;2023-04-06T03:26:21;9.27;;;7.83;;
11829;SDS011;5972;42.134;24.718;2023-04-06T03:28:48;10.73;;;8.37;;
11829;SDS011;5972;42.134;24.718;2023-04-06T03:31:15;9.27;;;7.97;;
11829;SDS011;5972;42.134;24.718;2023-04-06T03:33:42;9.13;;;8.17;;
11829;SDS011;5972;42.134;24.718;2023-04-06T03:36:08;11.97;;;8.57;;
11829;SDS011;5972;42.134;24.718;2023-04-06T03:38:35;8.57;;;7.33;;
11829;SDS011;5972;42.134;24.718;2023-04-06T03:41:03;9.70;;;8.37;;
11829;SDS011;5972;42.134;24.718;2023-04-06T03:43:30;9.10;;;7.80;;
11829;SDS011;5972;42.134;24.718;2023-04-06T03:45:57;9.53;;;7.80;;
11829;SDS011;5972;42.134;24.718;2023-04-06T03:48:24;10.70;;;8.23;;
11829;SDS011;5972;42.134;24.718;2023-04-06T03:50:50;11.17;;;8.33;;
11829;SDS011;5972;42.134;24.718;2023-04-06T03:53:17;9.83;;;8.03;;
11829;SDS011;5972;42.134;24.718;2023-04-06T03:55:44;13.00;;;8.03;;
11829;SDS011;5972;42.134;24.718;2023-04-06T03:58:12;9.47;;;7.97;;
11829;SDS011;5972;42.134;24.718;2023-04-06T04:00:39;10.00;;;7.90;;
11829;SDS011;5972;42.134;24.718;2023-04-06T04:03:06;10.67;;;7.97;;
11829;SDS011;5972;42.134;24.718;2023-04-06T04:05:33;8.70;;;7.83;;
11829;SDS011;5972;42.134;24.718;2023-04-06T04:08:00;12.13;;;7.73;;
11829;SDS011;5972;42.134;24.718;2023-04-06T04:10:27;8.33;;;7.33;;
11829;SDS011;5972;42.134;24.718;2023-04-06T04:12:53;8.57;;;7.53;;
11829;SDS011;5972;42.134;24.718;2023-04-06T04:15:22;8.37;;;7.43;;
11829;SDS011;5972;42.134;24.718;2023-04-06T04:17:48;8.20;;;7.00;;
11829;SDS011;5972;42.134;24.718;2023-04-06T04:20:15;7.23;;;6.47;;
11829;SDS011;5972;42.134;24.718;2023-04-06T04:22:42;9.80;;;7.13;;
11829;SDS011;5972;42.134;24.718;2023-04-06T04:25:09;7.33;;;6.57;;
11829;SDS011;5972;42.134;24.718;2023-04-06T04:27:36;8.03;;;7.23;;
11829;SDS011;5972;42.134;24.718;2023-04-06T04:30:04;9.33;;;6.70;;
11829;SDS011;5972;42.134;24.718;2023-04-06T04:32:34;8.37;;;7.10;;
11829;SDS011;5972;42.134;24.718;2023-04-06T04:35:01;10.73;;;7.07;;
11829;SDS011;5972;42.134;24.718;2023-04-06T04:37:28;9.60;;;6.77;;
11829;SDS011;5972;42.134;24.718;2023-04-06T04:39:55;7.17;;;6.43;;
11829;SDS011;5972;42.134;24.718;2023-04-06T04:42:21;17.43;;;6.40;;
11829;SDS011;5972;42.134;24.718;2023-04-06T04:44:48;7.50;;;6.67;;
11829;SDS011;5972;42.134;24.718;2023-04-06T04:47:15;7.47;;;6.70;;
11829;SDS011;5972;42.134;24.718;2023-04-06T04:49:43;7.27;;;6.57;;
11829;SDS011;5972;42.134;24.718;2023-04-06T04:52:10;8.43;;;6.50;;
11829;SDS011;5972;42.134;24.718;2023-04-06T04:54:37;7.97;;;6.80;;
11829;SDS011;5972;42.134;24.718;2023-04-06T04:57:06;9.87;;;7.10;;
11829;SDS011;5972;42.134;24.718;2023-04-06T04:59:33;7.20;;;6.50;;
11829;SDS011;5972;42.134;24.718;2023-04-06T05:02:00;10.20;;;7.07;;
11829;SDS011;5972;42.134;24.718;2023-04-06T05:04:27;7.40;;;6.60;;
11829;SDS011;5972;42.134;24.718;2023-04-06T05:07:02;7.20;;;6.50;;
11829;SDS011;5972;42.134;24.718;2023-04-06T05:09:30;7.57;;;6.70;;
11829;SDS011;5972;42.134;24.718;2023-04-06T05:11:57;8.03;;;6.77;;
11829;SDS011;5972;42.134;24.718;2023-04-06T05:14:24;8.47;;;6.33;;
11829;SDS011;5972;42.134;24.718;2023-04-06T05:16:51;7.07;;;6.30;;
11829;SDS011;5972;42.134;24.718;2023-04-06T05:19:18;7.87;;;6.47;;
11829;SDS011;5972;42.134;24.718;2023-04-06T05:21:45;6.87;;;5.83;;
11829;SDS011;5972;42.134;24.718;2023-04-06T05:24:14;7.53;;;6.27;;
11829;SDS011;5972;42.134;24.718;2023-04-06T05:26:40;9.13;;;6.80;;
11829;SDS011;5972;42.134;24.718;2023-04-06T05:29:07;7.00;;;6.30;;
11829;SDS011;5972;42.134;24.718;2023-04-06T05:31:34;8.63;;;6.13;;
11829;SDS011;5972;42.134;24.718;2023-04-06T05:34:01;6.67;;;5.80;;
11829;SDS011;5972;42.134;24.718;2023-04-06T05:36:28;6.70;;;6.00;;
11829;SDS011;5972;42.134;24.718;2023-04-06T05:38:55;6.97;;;6.00;;
11829;SDS011;5972;42.134;24.718;2023-04-06T05:41:24;7.77;;;6.97;;
11829;SDS011;5972;42.134;24.718;2023-04-06T05:43:51;6.53;;;5.80;;
11829;SDS011;5972;42.134;24.718;2023-04-06T05:46:18;11.63;;;6.37;;
11829;SDS011;5972;42.134;24.718;2023-04-06T05:48:45;8.03;;;6.27;;
11829;SDS011;5972;42.134;24.718;2023-04-06T05:51:11;8.00;;;6.50;;
11829;SDS011;5972;42.134;24.718;2023-04-06T05:53:38;7.00;;;6.30;;
11829;SDS011;5972;42.134;24.718;2023-04-06T05:56:05;7.68;;;5.80;;
11829;SDS011;5972;42.134;24.718;2023-04-06T05:58:34;6.70;;;5.47;;
11829;SDS011;5972;42.134;24.718;2023-04-06T06:01:01;9.90;;;6.00;;
11829;SDS011;5972;42.134;24.718;2023-04-06T06:03:28;6.47;;;5.10;;
11829;SDS011;5972;42.134;24.718;2023-04-06T06:05:59;6.13;;;5.28;;
11829;SDS011;5972;42.134;24.718;2023-04-06T06:08:26;15.25;;;5.38;;
11829;SDS011;5972;42.134;24.718;2023-04-06T06:10:53;8.38;;;5.85;;
11829;SDS011;5972;42.134;24.718;2023-04-06T06:13:20;4.85;;;4.45;;
11829;SDS011;5972;42.134;24.718;2023-04-06T06:15:49;5.57;;;4.63;;
11829;SDS011;5972;42.134;24.718;2023-04-06T06:18:16;6.78;;;4.82;;
11829;SDS011;5972;42.134;24.718;2023-04-06T06:20:43;5.13;;;4.63;;
11829;SDS011;5972;42.134;24.718;2023-04-06T06:23:09;6.50;;;4.50;;
11829;SDS011;5972;42.134;24.718;2023-04-06T06:25:36;5.80;;;4.50;;
11829;SDS011;5972;42.134;24.718;2023-04-06T06:28:03;5.05;;;4.53;;
11829;SDS011;5972;42.134;24.718;2023-04-06T06:30:30;5.00;;;4.60;;
11829;SDS011;5972;42.134;24.718;2023-04-06T06:32:58;5.95;;;4.70;;
11829;SDS011;5972;42.134;24.718;2023-04-06T06:35:25;6.60;;;4.50;;
11829;SDS011;5972;42.134;24.718;2023-04-06T06:37:52;6.28;;;5.00;;
11829;SDS011;5972;42.134;24.718;2023-04-06T06:40:18;6.80;;;4.65;;
11829;SDS011;5972;42.134;24.718;2023-04-06T06:42:48;5.47;;;4.63;;
11829;SDS011;5972;42.134;24.718;2023-04-06T06:45:15;5.00;;;4.30;;
11829;SDS011;5972;42.134;24.718;2023-04-06T06:47:43;6.35;;;4.45;;
11829;SDS011;5972;42.134;24.718;2023-04-06T06:50:11;4.75;;;4.05;;
11829;SDS011;5972;42.134;24.718;2023-04-06T06:52:39;5.32;;;4.60;;
11829;SDS011;5972;42.134;24.718;2023-04-06T06:55:06;6.70;;;4.75;;
11829;SDS011;5972;42.134;24.718;2023-04-06T06:57:34;5.38;;;4.88;;
11829;SDS011;5972;42.134;24.718;2023-04-06T07:00:01;6.32;;;5.10;;
11829;SDS011;5972;42.134;24.718;2023-04-06T07:02:29;5.88;;;5.38;;
11829;SDS011;5972;42.134;24.718;2023-04-06T07:04:56;5.70;;;5.20;;
11829;SDS011;5972;42.134;24.718;2023-04-06T07:07:24;5.53;;;5.00;;
11829;SDS011;5972;42.134;24.718;2023-04-06T07:09:51;6.43;;;5.22;;
11829;SDS011;5972;42.134;24.718;2023-04-06T07:12:17;8.35;;;5.40;;
11829;SDS011;5972;42.134;24.718;2023-04-06T07:14:44;9.27;;;5.05;;
11829;SDS011;5972;42.134;24.718;2023-04-06T07:17:11;5.78;;;5.18;;
11829;SDS011;5972;42.134;24.718;2023-04-06T07:19:38;5.68;;;5.03;;
11829;SDS011;5972;42.134;24.718;2023-04-06T07:22:05;5.00;;;4.50;;
11829;SDS011;5972;42.134;24.718;2023-04-06T07:24:33;5.10;;;4.60;;
11829;SDS011;5972;42.134;24.718;2023-04-06T07:27:00;5.20;;;4.45;;
11829;SDS011;5972;42.134;24.718;2023-04-06T07:29:27;5.75;;;4.95;;
11829;SDS011;5972;42.134;24.718;2023-04-06T07:31:55;8.32;;;4.70;;
11829;SDS011;5972;42.134;24.718;2023-04-06T07:34:21;4.68;;;4.28;;
11829;SDS011;5972;42.134;24.718;2023-04-06T07:36:48;4.80;;;4.40;;
11829;SDS011;5972;42.134;24.718;2023-04-06T07:39:17;5.63;;;4.72;;
11829;SDS011;5972;42.134;24.718;2023-04-06T07:41:46;5.57;;;5.00;;
11829;SDS011;5972;42.134;24.718;2023-04-06T07:44:12;4.90;;;4.50;;
11829;SDS011;5972;42.134;24.718;2023-04-06T07:46:39;4.63;;;4.18;;
11829;SDS011;5972;42.134;24.718;2023-04-06T07:49:06;5.78;;;5.13;;
11829;SDS011;5972;42.134;24.718;2023-04-06T07:51:35;6.68;;;5.47;;
11829;SDS011;5972;42.134;24.718;2023-04-06T07:54:02;8.73;;;5.10;;
11829;SDS011;5972;42.134;24.718;2023-04-06T07:56:29;9.05;;;5.28;;
11829;SDS011;5972;42.134;24.718;2023-04-06T07:58:57;7.38;;;5.60;;
11829;SDS011;5972;42.134;24.718;2023-04-06T08:01:24;7.22;;;5.55;;
11829;SDS011;5972;42.134;24.718;2023-04-06T08:03:51;7.40;;;5.30;;
11829;SDS011;5972;42.134;24.718;2023-04-06T08:06:18;5.88;;;5.28;;
11829;SDS011;5972;42.134;24.718;2023-04-06T08:08:44;6.78;;;5.15;;
11829;SDS011;5972;42.134;24.718;2023-04-06T08:11:11;6.32;;;5.25;;
11829;SDS011;5972;42.134;24.718;2023-04-06T08:13:38;12.10;;;6.65;;
11829;SDS011;5972;42.134;24.718;2023-04-06T08:16:06;7.47;;;4.90;;
11829;SDS011;5972;42.134;24.718;2023-04-06T08:18:33;9.73;;;6.38;;
11829;SDS011;5972;42.134;24.718;2023-04-06T08:21:00;10.70;;;6.90;;
11829;SDS011;5972;42.134;24.718;2023-04-06T08:23:27;7.03;;;6.32;;
11829;SDS011;5972;42.134;24.718;2023-04-06T08:25:54;5.75;;;4.60;;
11829;SDS011;5972;42.134;24.718;2023-04-06T08:28:21;8.07;;;4.32;;
11829;SDS011;5972;42.134;24.718;2023-04-06T08:30:48;5.93;;;4.82;;
11829;SDS011;5972;42.134;24.718;2023-04-06T08:33:16;4.85;;;4.35;;
11829;SDS011;5972;42.134;24.718;2023-04-06T08:35:43;5.60;;;4.90;;
11829;SDS011;5972;42.134;24.718;2023-04-06T08:38:10;6.22;;;5.45;;
11829;SDS011;5972;42.134;24.718;2023-04-06T08:40:37;5.80;;;5.30;;
11829;SDS011;5972;42.134;24.718;2023-04-06T08:43:05;5.20;;;4.65;;
11829;SDS011;5972;42.134;24.718;2023-04-06T08:45:36;6.55;;;4.47;;
11829;SDS011;5972;42.134;24.718;2023-04-06T08:48:04;7.40;;;4.90;;
11829;SDS011;5972;42.134;24.718;2023-04-06T08:50:33;7.25;;;5.18;;
11829;SDS011;5972;42.134;24.718;2023-04-06T08:53:00;7.95;;;5.00;;
11829;SDS011;5972;42.134;24.718;2023-04-06T08:55:27;5.07;;;4.57;;
11829;SDS011;5972;42.134;24.718;2023-04-06T08:57:54;5.57;;;5.07;;
11829;SDS011;5972;42.134;24.718;2023-04-06T09:00:22;5.85;;;5.25;;
11829;SDS011;5972;42.134;24.718;2023-04-06T09:02:51;4.97;;;4.00;;
11829;SDS011;5972;42.134;24.718;2023-04-06T09:05:21;5.28;;;4.78;;
11829;SDS011;5972;42.134;24.718;2023-04-06T09:07:52;5.38;;;4.57;;
11829;SDS011;5972;42.134;24.718;2023-04-06T09:10:19;7.60;;;5.13;;
11829;SDS011;5972;42.134;24.718;2023-04-06T09:12:48;5.65;;;5.15;;
11829;SDS011;5972;42.134;24.718;2023-04-06T09:15:18;7.65;;;4.70;;
11829;SDS011;5972;42.134;24.718;2023-04-06T09:17:46;4.80;;;4.32;;
11829;SDS011;5972;42.134;24.718;2023-04-06T09:20:13;5.80;;;4.40;;
11829;SDS011;5972;42.134;24.718;2023-04-06T09:22:42;4.10;;;3.80;;
11829;SDS011;5972;42.134;24.718;2023-04-06T09:25:10;4.50;;;4.10;;
11829;SDS011;5972;42.134;24.718;2023-04-06T09:27:45;4.32;;;3.92;;
11829;SDS011;5972;42.134;24.718;2023-04-06T09:30:13;4.35;;;3.95;;
11829;SDS011;5972;42.134;24.718;2023-04-06T09:32:45;4.60;;;4.20;;
11829;SDS011;5972;42.134;24.718;2023-04-06T09:35:14;4.75;;;3.60;;
11829;SDS011;5972;42.134;24.718;2023-04-06T09:37:41;3.70;;;3.40;;
11829;SDS011;5972;42.134;24.718;2023-04-06T09:40:10;3.88;;;3.58;;
11829;SDS011;5972;42.134;24.718;2023-04-06T09:42:40;4.32;;;3.40;;
11829;SDS011;5972;42.134;24.718;2023-04-06T09:45:08;3.92;;;3.63;;
11829;SDS011;5972;42.134;24.718;2023-04-06T09:47:36;3.30;;;3.00;;
11829;SDS011;5972;42.134;24.718;2023-04-06T09:50:05;2.60;;;2.40;;
11829;SDS011;5972;42.134;24.718;2023-04-06T09:52:37;4.05;;;2.90;;
11829;SDS011;5972;42.134;24.718;2023-04-06T09:55:07;3.10;;;2.90;;
11829;SDS011;5972;42.134;24.718;2023-04-06T09:57:37;3.28;;;2.80;;
11829;SDS011;5972;42.134;24.718;2023-04-06T10:00:12;2.70;;;2.50;;
11829;SDS011;5972;42.134;24.718;2023-04-06T10:02:45;4.97;;;3.08;;
11829;SDS011;5972;42.134;24.718;2023-04-06T10:05:22;2.90;;;2.60;;
11829;SDS011;5972;42.134;24.718;2023-04-06T10:07:57;3.33;;;3.03;;
11829;SDS011;5972;42.134;24.718;2023-04-06T10:10:27;4.60;;;3.00;;
11829;SDS011;5972;42.134;24.718;2023-04-06T10:12:56;4.03;;;2.88;;
11829;SDS011;5972;42.134;24.718;2023-04-06T10:15:25;3.13;;;2.83;;
11829;SDS011;5972;42.134;24.718;2023-04-06T10:17:53;2.53;;;2.33;;
11829;SDS011;5972;42.134;24.718;2023-04-06T10:20:21;3.20;;;2.90;;
11829;SDS011;5972;42.134;24.718;2023-04-06T10:22:55;6.57;;;3.15;;
11829;SDS011;5972;42.134;24.718;2023-04-06T10:25:26;3.30;;;2.70;;
11829;SDS011;5972;42.134;24.718;2023-04-06T10:28:00;2.88;;;2.65;;
11829;SDS011;5972;42.134;24.718;2023-04-06T10:30:28;3.40;;;3.00;;
11829;SDS011;5972;42.134;24.718;2023-04-06T10:32:55;3.28;;;2.90;;
11829;SDS011;5972;42.134;24.718;2023-04-06T10:35:22;3.55;;;3.05;;
11829;SDS011;5972;42.134;24.718;2023-04-06T10:37:51;4.28;;;3.72;;
11829;SDS011;5972;42.134;24.718;2023-04-06T10:40:23;3.47;;;3.20;;
11829;SDS011;5972;42.134;24.718;2023-04-06T10:42:52;3.13;;;2.83;;
11829;SDS011;5972;42.134;24.718;2023-04-06T10:45:21;4.55;;;2.90;;
11829;SDS011;5972;42.134;24.718;2023-04-06T10:47:49;3.22;;;2.55;;
11829;SDS011;5972;42.134;24.718;2023-04-06T10:50:19;4.05;;;2.92;;
11829;SDS011;5972;42.134;24.718;2023-04-06T10:52:45;3.00;;;2.70;;
11829;SDS011;5972;42.134;24.718;2023-04-06T10:55:13;2.90;;;2.60;;
11829;SDS011;5972;42.134;24.718;2023-04-06T10:57:40;3.53;;;3.20;;
11829;SDS011;5972;42.134;24.718;2023-04-06T11:00:08;3.10;;;2.90;;
11829;SDS011;5972;42.134;24.718;2023-04-06T11:02:39;2.95;;;2.63;;
11829;SDS011;5972;42.134;24.718;2023-04-06T11:05:07;3.40;;;3.10;;
11829;SDS011;5972;42.134;24.718;2023-04-06T11:07:34;3.42;;;3.10;;
11829;SDS011;5972;42.134;24.718;2023-04-06T11:10:00;2.78;;;2.50;;
11829;SDS011;5972;42.134;24.718;2023-04-06T11:12:27;3.20;;;2.85;;
11829;SDS011;5972;42.134;24.718;2023-04-06T11:14:56;3.45;;;3.15;;
11829;SDS011;5972;42.134;24.718;2023-04-06T11:17:27;3.22;;;2.92;;
11829;SDS011;5972;42.134;24.718;2023-04-06T11:19:57;3.40;;;3.10;;
11829;SDS011;5972;42.134;24.718;2023-04-06T11:22:24;4.55;;;3.20;;
11829;SDS011;5972;42.134;24.718;2023-04-06T11:24:51;3.33;;;3.00;;
11829;SDS011;5972;42.134;24.718;2023-04-06T11:27:18;3.40;;;3.10;;
11829;SDS011;5972;42.134;24.718;2023-04-06T11:29:46;2.85;;;2.65;;
11829;SDS011;5972;42.134;24.718;2023-04-06T11:32:19;3.25;;;2.80;;
11829;SDS011;5972;42.134;24.718;2023-04-06T11:34:47;4.75;;;3.22;;
11829;SDS011;5972;42.134;24.718;2023-04-06T11:37:16;3.33;;;3.03;;
11829;SDS011;5972;42.134;24.718;2023-04-06T11:39:43;4.45;;;3.20;;
11829;SDS011;5972;42.134;24.718;2023-04-06T11:42:20;3.22;;;2.92;;
11829;SDS011;5972;42.134;24.718;2023-04-06T11:44:49;3.25;;;2.95;;
11829;SDS011;5972;42.134;24.718;2023-04-06T11:47:18;3.92;;;3.60;;
11829;SDS011;5972;42.134;24.718;2023-04-06T11:49:47;4.63;;;3.45;;
11829;SDS011;5972;42.134;24.718;2023-04-06T11:52:17;4.88;;;3.90;;
11829;SDS011;5972;42.134;24.718;2023-04-06T11:54:45;4.30;;;3.00;;
11829;SDS011;5972;42.134;24.718;2023-04-06T11:57:12;6.38;;;3.58;;
11829;SDS011;5972;42.134;24.718;2023-04-06T11:59:40;3.90;;;3.40;;
11829;SDS011;5972;42.134;24.718;2023-04-06T12:02:07;3.72;;;3.42;;
11829;SDS011;5972;42.134;24.718;2023-04-06T12:04:34;4.13;;;3.47;;
11829;SDS011;5972;42.134;24.718;2023-04-06T12:07:01;4.00;;;3.67;;
11829;SDS011;5972;42.134;24.718;2023-04-06T12:09:30;3.40;;;3.08;;
11829;SDS011;5972;42.134;24.718;2023-04-06T12:11:59;3.85;;;3.50;;
11829;SDS011;5972;42.134;24.718;2023-04-06T12:14:27;4.00;;;3.70;;
11829;SDS011;5972;42.134;24.718;2023-04-06T12:16:56;4.47;;;4.07;;
11829;SDS011;5972;42.134;24.718;2023-04-06T12:19:23;5.35;;;4.00;;
11829;SDS011;5972;42.134;24.718;2023-04-06T12:21:51;3.83;;;3.42;;
11829;SDS011;5972;42.134;24.718;2023-04-06T12:24:19;4.50;;;3.58;;
11829;SDS011;5972;42.134;24.718;2023-04-06T12:26:49;3.97;;;3.58;;
11829;SDS011;5972;42.134;24.718;2023-04-06T12:29:17;5.82;;;4.00;;
11829;SDS011;5972;42.134;24.718;2023-04-06T12:31:46;4.63;;;4.22;;
11829;SDS011;5972;42.134;24.718;2023-04-06T12:34:13;4.47;;;4.07;;
11829;SDS011;5972;42.134;24.718;2023-04-06T12:36:41;5.35;;;3.90;;
11829;SDS011;5972;42.134;24.718;2023-04-06T12:39:08;4.68;;;4.28;;
11829;SDS011;5972;42.134;24.718;2023-04-06T12:41:36;3.83;;;3.47;;
11829;SDS011;5972;42.134;24.718;2023-04-06T12:44:07;4.47;;;3.90;;
11829;SDS011;5972;42.134;24.718;2023-04-06T12:46:34;3.80;;;3.50;;
11829;SDS011;5972;42.134;24.718;2023-04-06T12:49:01;4.00;;;3.67;;
11829;SDS011;5972;42.134;24.718;2023-04-06T12:51:29;4.47;;;3.90;;
11829;SDS011;5972;42.134;24.718;2023-04-06T12:53:57;4.85;;;3.65;;
11829;SDS011;5972;42.134;24.718;2023-04-06T12:56:25;4.25;;;3.80;;
11829;SDS011;5972;42.134;24.718;2023-04-06T12:58:53;3.90;;;3.53;;
11829;SDS011;5972;42.134;24.718;2023-04-06T13:01:21;3.70;;;3.40;;
11829;SDS011;5972;42.134;24.718;2023-04-06T13:03:50;3.83;;;3.42;;
11829;SDS011;5972;42.134;24.718;2023-04-06T13:06:17;4.63;;;4.00;;
11829;SDS011;5972;42.134;24.718;2023-04-06T13:08:45;9.10;;;3.58;;
11829;SDS011;5972;42.134;24.718;2023-04-06T13:11:15;4.25;;;3.75;;
11829;SDS011;5972;42.134;24.718;2023-04-06T13:13:42;4.60;;;4.13;;
11829;SDS011;5972;42.134;24.718;2023-04-06T13:16:09;4.32;;;3.92;;
11829;SDS011;5972;42.134;24.718;2023-04-06T13:18:38;4.38;;;3.97;;
11829;SDS011;5972;42.134;24.718;2023-04-06T13:21:06;6.57;;;3.95;;
11829;SDS011;5972;42.134;24.718;2023-04-06T13:23:33;4.72;;;3.95;;
11829;SDS011;5972;42.134;24.718;2023-04-06T13:26:01;4.35;;;3.95;;
11829;SDS011;5972;42.134;24.718;2023-04-06T13:28:30;8.43;;;3.83;;
11829;SDS011;5972;42.134;24.718;2023-04-06T13:30:58;6.03;;;3.67;;
11829;SDS011;5972;42.134;24.718;2023-04-06T13:33:26;4.30;;;3.38;;
11829;SDS011;5972;42.134;24.718;2023-04-06T13:35:56;7.03;;;4.10;;
11829;SDS011;5972;42.134;24.718;2023-04-06T13:38:23;4.97;;;4.13;;
11829;SDS011;5972;42.134;24.718;2023-04-06T13:40:51;6.43;;;4.35;;
11829;SDS011;5972;42.134;24.718;2023-04-06T13:43:19;5.72;;;3.67;;
11829;SDS011;5972;42.134;24.718;2023-04-06T13:45:52;3.90;;;3.53;;
11829;SDS011;5972;42.134;24.718;2023-04-06T13:48:20;6.22;;;4.32;;
11829;SDS011;5972;42.134;24.718;2023-04-06T13:50:48;4.20;;;3.63;;
11829;SDS011;5972;42.134;24.718;2023-04-06T13:53:17;4.15;;;3.85;;
11829;SDS011;5972;42.134;24.718;2023-04-06T13:55:51;6.45;;;4.10;;
11829;SDS011;5972;42.134;24.718;2023-04-06T13:58:20;5.38;;;3.90;;
11829;SDS011;5972;42.134;24.718;2023-04-06T14:00:47;4.35;;;3.30;;
11829;SDS011;5972;42.134;24.718;2023-04-06T14:03:14;3.53;;;3.22;;
11829;SDS011;5972;42.134;24.718;2023-04-06T14:05:42;4.63;;;3.50;;
11829;SDS011;5972;42.134;24.718;2023-04-06T14:08:09;8.82;;;3.80;;
11829;SDS011;5972;42.134;24.718;2023-04-06T14:10:38;3.72;;;3.35;;
11829;SDS011;5972;42.134;24.718;2023-04-06T14:13:07;3.72;;;3.42;;
11829;SDS011;5972;42.134;24.718;2023-04-06T14:15:34;6.38;;;3.30;;
11829;SDS011;5972;42.134;24.718;2023-04-06T14:18:01;3.60;;;3.30;;
11829;SDS011;5972;42.134;24.718;2023-04-06T14:20:30;5.75;;;3.38;;
11829;SDS011;5972;42.134;24.718;2023-04-06T14:22:59;6.10;;;3.42;;
11829;SDS011;5972;42.134;24.718;2023-04-06T14:25:27;3.88;;;3.47;;
11829;SDS011;5972;42.134;24.718;2023-04-06T14:27:57;4.88;;;3.60;;
11829;SDS011;5972;42.134;24.718;2023-04-06T14:30:24;4.35;;;3.38;;
11829;SDS011;5972;42.134;24.718;2023-04-06T14:32:52;3.42;;;3.13;;
11829;SDS011;5972;42.134;24.718;2023-04-06T14:35:22;4.30;;;3.30;;
11829;SDS011;5972;42.134;24.718;2023-04-06T14:37:50;4.43;;;3.50;;
11829;SDS011;5972;42.134;24.718;2023-04-06T14:40:17;5.63;;;3.58;;
11829;SDS011;5972;42.134;24.718;2023-04-06T14:42:43;5.47;;;3.38;;
11829;SDS011;5972;42.134;24.718;2023-04-06T14:45:13;3.97;;;3.67;;
11829;SDS011;5972;42.134;24.718;2023-04-06T14:47:39;3.42;;;3.13;;